| time (UTC) | temp F | wind direction | speed knots | gust knots | rain 1hr in | rain 24hr in | rain mn in | humidity % | barometer mb |
| 20260509053102 | 50 | 170 | 0.0 | 2.6 | 0.00 | 0.00 | 0.00 | 62 | 1005.0 |
| 20260509051610 | 50 | 167 | 0.0 | 2.6 | 0.00 | 0.00 | 0.00 | 58 | 1005.0 |
| 20260509050015 | 50 | 165 | 0.0 | 0.0 | 0.00 | 0.00 | 0.00 | 54 | 1005.2 |
| 20260509044609 | 50 | 165 | 0.0 | 0.9 | 0.00 | 0.00 | 0.00 | 53 | 1005.0 |
| 20260509043119 | 50 | 171 | 0.0 | 2.6 | 0.00 | 0.00 | 0.00 | 54 | 1005.4 |
| 20260509041606 | 50 | 161 | 0.0 | 2.6 | 0.00 | 0.00 | 0.00 | 55 | 1005.5 |
| 20260509040118 | 49 | 166 | 0.0 | 0.0 | 0.00 | 0.00 | 0.00 | 55 | 1005.6 |
| 20260509034608 | 49 | 167 | 0.0 | 0.0 | 0.00 | 0.00 | 0.00 | 55 | 1005.7 |
| 20260509033116 | 48 | 173 | 0.0 | 0.0 | 0.00 | 0.00 | 0.00 | 57 | 1005.7 |
| 20260509031504 | 48 | 233 | 0.0 | 0.0 | 0.00 | 0.00 | 0.00 | 61 | 1005.9 |
| 20260509030113 | 49 | 233 | 0.0 | 0.0 | 0.00 | 0.00 | 0.00 | 62 | 1006.1 |
| 20260509024619 | 49 | 233 | 0.0 | 0.0 | 0.00 | 0.00 | 0.00 | 58 | 1006.1 |
| 20260509023109 | 49 | 233 | 0.0 | 0.0 | 0.00 | 0.00 | 0.00 | 56 | 1006.2 |
| 20260509021619 | 51 | 279 | 0.0 | 0.0 | 0.00 | 0.00 | 0.00 | 54 | 1006.3 |
| 20260509020108 | 52 | 279 | 0.0 | 0.0 | 0.00 | 0.00 | 0.00 | 49 | 1006.3 |
| 20260509014615 | 52 | 279 | 0.0 | 0.0 | 0.00 | 0.00 | 0.00 | 52 | 1006.3 |
| 20260509013111 | 54 | 279 | 0.0 | 0.0 | 0.00 | 0.00 | 0.00 | 41 | 1006.2 |
| 20260509011612 | 55 | 279 | 0.0 | 0.0 | 0.00 | 0.00 | 0.00 | 39 | 1006.1 |
| 20260509004611 | 58 | 279 | 0.0 | 0.0 | 0.00 | 0.00 | 0.00 | 42 | 1006.2 |
| 20260509003106 | 61 | 305 | 0.0 | 0.0 | 0.00 | 0.00 | 0.00 | 38 | 1006.1 |
| 20260509001612 | 63 | 305 | 0.0 | 0.0 | 0.00 | 0.00 | 0.00 | 26 | 1006.3 |
| 20260509000005 | 62 | 305 | 0.0 | 0.0 | 0.00 | 0.00 | 0.00 | 29 | 1006.3 |
| 20260508234607 | 63 | 307 | 0.0 | 1.7 | 0.00 | 0.00 | 0.00 | 29 | 1006.5 |
| 20260508233119 | 63 | 301 | 0.0 | 5.2 | 0.00 | 0.00 | 0.00 | 26 | 1006.6 |
| 20260508230118 | 64 | 336 | 0.9 | 6.1 | 0.00 | 0.00 | 0.00 | 26 | 1006.6 |
| 20260508224615 | 64 | 286 | 0.0 | 7.8 | 0.00 | 0.00 | 0.00 | 26 | 1006.5 |
| 20260508223114 | 64 | 306 | 0.0 | 5.2 | 0.00 | 0.00 | 0.00 | 26 | 1006.6 |
| 20260508221503 | 64 | 301 | 4.3 | 12.2 | 0.00 | 0.00 | 0.00 | 23 | 1006.6 |
| 20260508220110 | 65 | 348 | 1.7 | 10.4 | 0.00 | 0.00 | 0.00 | 29 | 1006.7 |
| 20260508214617 | 65 | 326 | 0.9 | 7.0 | 0.00 | 0.00 | 0.00 | 28 | 1006.7 |
| 20260508213109 | 65 | 339 | 0.9 | 10.4 | 0.00 | 0.00 | 0.00 | 28 | 1006.7 |
| 20260508211616 | 64 | 299 | 3.5 | 9.6 | 0.00 | 0.00 | 0.00 | 29 | 1006.8 |
| 20260508210107 | 64 | 290 | 3.5 | 13.0 | 0.00 | 0.00 | 0.00 | 31 | 1006.9 |
| 20260508204614 | 64 | 278 | 7.8 | 14.8 | 0.00 | 0.00 | 0.00 | 28 | 1007.1 |
| 20260508203110 | 64 | 300 | 5.2 | 14.8 | 0.00 | 0.00 | 0.00 | 30 | 1007.3 |
| 20260508201611 | 63 | 243 | 5.2 | 13.9 | 0.00 | 0.00 | 0.00 | 29 | 1007.3 |
| 20260508200124 | 63 | 243 | 9.6 | 15.6 | 0.00 | 0.00 | 0.00 | 26 | 1007.6 |
| 20260508194612 | 63 | 263 | 0.9 | 9.6 | 0.00 | 0.00 | 0.00 | 32 | 1007.8 |
| 20260508193119 | 63 | 260 | 6.1 | 15.6 | 0.00 | 0.00 | 0.00 | 30 | 1008.0 |
| 20260508191605 | 63 | 248 | 3.5 | 14.8 | 0.00 | 0.00 | 0.00 | 32 | 1008.1 |
| 20260508190117 | 63 | 243 | 9.6 | 16.5 | 0.00 | 0.00 | 0.00 | 27 | 1008.2 |
| 20260508184622 | 63 | 248 | 6.1 | 17.4 | 0.00 | 0.00 | 0.00 | 28 | 1008.3 |
| 20260508183148 | 63 | 243 | 9.6 | 16.5 | 0.00 | 0.00 | 0.00 | 30 | 1008.4 |
| 20260508181616 | 63 | 259 | 4.3 | 15.6 | 0.00 | 0.00 | 0.00 | 35 | 1008.5 |
| 20260508180108 | 63 | 281 | 3.5 | 14.8 | 0.00 | 0.00 | 0.00 | 30 | 1008.7 |
| 20260508174616 | 63 | 248 | 5.2 | 16.5 | 0.00 | 0.00 | 0.00 | 34 | 1009.0 |
| 20260508173113 | 63 | 248 | 4.3 | 13.0 | 0.00 | 0.00 | 0.00 | 40 | 1009.1 |
| 20260508171615 | 62 | 225 | 4.3 | 11.3 | 0.00 | 0.00 | 0.00 | 41 | 1009.2 |
| 20260508170105 | 62 | 109 | 0.0 | 6.1 | 0.00 | 0.00 | 0.00 | 36 | 1009.4 |
| 20260508164610 | 61 | 215 | 0.9 | 5.2 | 0.00 | 0.00 | 0.00 | 41 | 1009.8 |
| 20260508163005 | 60 | 336 | 0.0 | 0.9 | 0.00 | 0.00 | 0.00 | 46 | 1010.1 |
| 20260508161610 | 59 | 209 | 0.9 | 10.4 | 0.00 | 0.00 | 0.00 | 45 | 1010.2 |
| 20260508160121 | 59 | 301 | 0.0 | 0.0 | 0.00 | 0.00 | 0.00 | 47 | 1010.3 |
| 20260508154607 | 58 | 271 | 0.0 | 4.3 | 0.00 | 0.00 | 0.00 | 43 | 1010.4 |
| 20260508153118 | 59 | 124 | 0.0 | 5.2 | 0.00 | 0.00 | 0.00 | 49 | 1010.3 |
| 20260508151605 | 59 | 273 | 0.0 | 5.2 | 0.00 | 0.00 | 0.00 | 48 | 1010.5 |
| 20260508150127 | 58 | 165 | 0.0 | 3.5 | 0.00 | 0.00 | 0.00 | 49 | 1010.6 |
| 20260508144606 | 57 | 184 | 0.9 | 3.5 | 0.00 | 0.00 | 0.00 | 53 | 1010.7 |
| 20260508143117 | 55 | 234 | 0.0 | 0.0 | 0.00 | 0.00 | 0.00 | 55 | 1010.9 |
| 20260508141522 | 55 | 210 | 0.0 | 0.0 | 0.00 | 0.00 | 0.00 | 67 | 1010.9 |
| 20260508140121 | 53 | 243 | 0.0 | 0.0 | 0.00 | 0.00 | 0.00 | 75 | 1011.1 |
| 20260508134620 | 51 | 220 | 0.0 | 0.0 | 0.00 | 0.00 | 0.00 | 79 | 1011.2 |
| 20260508133131 | 50 | 181 | 0.0 | 0.0 | 0.00 | 0.00 | 0.00 | 84 | 1011.2 |
| 20260508131617 | 49 | 167 | 0.0 | 0.0 | 0.00 | 0.00 | 0.00 | 90 | 1011.5 |
| 20260508130109 | 47 | 155 | 0.0 | 0.0 | 0.00 | 0.00 | 0.00 | 95 | 1011.5 |
| 20260508124615 | 44 | 180 | 0.0 | 0.0 | 0.00 | 0.00 | 0.00 | 95 | 1011.7 |
| 20260508123107 | 41 | 232 | 0.0 | 0.0 | 0.00 | 0.00 | 0.00 | 95 | 1011.6 |
| 20260508121615 | 40 | 232 | 0.0 | 0.0 | 0.00 | 0.00 | 0.00 | 95 | 1011.5 |
| 20260508120106 | 38 | 232 | 0.0 | 0.0 | 0.00 | 0.00 | 0.00 | 95 | 1011.3 |
| 20260508114614 | 36 | 232 | 0.0 | 0.0 | 0.00 | 0.00 | 0.00 | 94 | 1011.1 |
| 20260508113127 | 35 | 232 | 0.0 | 0.0 | 0.00 | 0.00 | 0.00 | 94 | 1011.0 |
| 20260508111617 | 35 | 232 | 0.0 | 0.0 | 0.00 | 0.00 | 0.00 | 94 | 1011.0 |
| 20260508110004 | 35 | 232 | 0.0 | 0.0 | 0.00 | 0.00 | 0.00 | 93 | 1010.7 |
| 20260508104610 | 35 | 232 | 0.0 | 0.0 | 0.00 | 0.00 | 0.00 | 94 | 1010.7 |
| 20260508103004 | 35 | 232 | 0.0 | 0.0 | 0.00 | 0.00 | 0.00 | 93 | 1010.6 |
| 20260508101608 | 35 | 232 | 0.0 | 0.0 | 0.00 | 0.00 | 0.00 | 93 | 1010.5 |
| 20260508100114 | 35 | 232 | 0.0 | 0.0 | 0.00 | 0.00 | 0.00 | 92 | 1010.5 |
| 20260508094606 | 36 | 232 | 0.0 | 0.0 | 0.00 | 0.00 | 0.00 | 93 | 1010.6 |
| 20260508093113 | 35 | 232 | 0.0 | 0.0 | 0.00 | 0.00 | 0.00 | 93 | 1010.6 |
| 20260508091607 | 37 | 232 | 0.0 | 0.0 | 0.00 | 0.00 | 0.00 | 92 | 1010.6 |
| 20260508090110 | 37 | 232 | 0.0 | 0.0 | 0.00 | 0.00 | 0.00 | 93 | 1010.7 |
| 20260508084606 | 37 | 232 | 0.0 | 0.0 | 0.00 | 0.00 | 0.00 | 93 | 1010.8 |
| 20260508083114 | 37 | 232 | 0.0 | 0.0 | 0.00 | 0.00 | 0.00 | 92 | 1010.6 |
| 20260508081618 | 38 | 232 | 0.0 | 0.0 | 0.00 | 0.00 | 0.00 | 92 | 1010.8 |
| 20260508080118 | 38 | 232 | 0.0 | 0.0 | 0.00 | 0.00 | 0.00 | 92 | 1010.8 |
| 20260508074607 | 38 | 232 | 0.0 | 0.0 | 0.00 | 0.00 | 0.00 | 91 | 1010.8 |
| 20260508073112 | 38 | 232 | 0.0 | 0.0 | 0.00 | 0.00 | 0.00 | 90 | 1011.0 |
| 20260508071506 | 39 | 232 | 0.0 | 0.0 | 0.00 | 0.00 | 0.00 | 91 | 1011.0 |
| 20260508070108 | 39 | 232 | 0.0 | 0.0 | 0.00 | 0.00 | 0.00 | 90 | 1011.0 |
| 20260508064617 | 40 | 232 | 0.0 | 0.0 | 0.00 | 0.00 | 0.00 | 90 | 1011.2 |
| 20260508063108 | 40 | 232 | 0.0 | 0.0 | 0.00 | 0.00 | 0.00 | 90 | 1011.4 |
| 20260508061617 | 40 | 232 | 0.0 | 0.0 | 0.00 | 0.00 | 0.00 | 89 | 1011.7 |
| 20260508060112 | 40 | 232 | 0.0 | 0.0 | 0.00 | 0.00 | 0.00 | 89 | 1011.7 |
| 20260508054627 | 40 | 232 | 0.0 | 0.0 | 0.00 | 0.00 | 0.00 | 90 | 1011.6 |